Flag for Australia

Past Weather in Sydney, New South Wales, Australia — January 2020

Currently: 72 °F. Passing clouds. (Weather station: Sydney Airport, Australia). See more current weather

January 2020 Weather in Sydney — Graph

°F

High & Low Weather Summary for January 2020

 TemperatureHumidityPressure
High109 °F (Jan 23, 3:30 pm)100% (Jan 17, 9:18 am)30.21 "Hg (Jan 17, 9:18 am)
Low63 °F (Jan 13, 3:30 am)12% (Jan 23, 1:30 pm)29.45 "Hg (Jan 23, 3:30 pm)
Average76 °F73%29.88 "Hg
* Reported Jan 1 12:00 am — Jan 31 11:30 pm, Sydney. Weather by CustomWeather, © 2021

Note: Actual official high and low records may vary slightly from our data, if they occured in-between our weather recording intervals... More about our weather records

Sydney Weather History for January 1, 2020

Scroll right to see more
 ConditionsComfort  
Time TempWeatherWind HumidityBarometerVisibility
12:00 am
Wed, Jan 1
68 °FPartly cloudy.22 mph73%29.95 "HgN/A
12:30 am68 °FPartly cloudy.18 mph73%29.92 "HgN/A
1:00 am68 °FPartly cloudy.16 mph78%29.92 "HgN/A
1:30 am66 °FPartly cloudy.17 mph78%29.92 "HgN/A
2:00 am68 °FPassing clouds.17 mph78%29.92 "HgN/A
2:30 am66 °FPassing clouds.18 mph78%29.89 "HgN/A
3:00 am66 °FPassing clouds.17 mph78%29.89 "HgN/A
3:30 am66 °FPassing clouds.17 mph73%29.89 "HgN/A
4:00 am68 °FPassing clouds.17 mph73%29.89 "HgN/A
4:30 am68 °FPassing clouds.17 mph73%29.89 "HgN/A
5:00 am68 °FPassing clouds.16 mph69%29.89 "HgN/A
5:30 am68 °FPassing clouds.17 mph73%29.92 "HgN/A
6:00 am66 °FPartly sunny.17 mph73%29.92 "HgN/A
6:30 am68 °FBroken clouds.16 mph69%29.92 "HgN/A
7:00 am68 °FBroken clouds.15 mph69%29.95 "HgN/A
7:30 am68 °FBroken clouds.13 mph69%29.95 "HgN/A
8:00 am68 °FPartly sunny.14 mph69%29.95 "HgN/A
8:30 am70 °FPartly sunny.12 mph69%29.95 "HgN/A
9:00 am68 °FPartly sunny.10 mph73%29.98 "HgN/A
9:30 am70 °FPartly sunny.10 mph69%29.95 "Hg6 mi
10:00 am70 °FPartly sunny.12 mph69%29.95 "HgN/A
10:30 am70 °FPartly sunny.13 mph69%29.95 "Hg6 mi
11:00 am72 °FPartly sunny.12 mph65%29.95 "Hg4 mi
12:00 pm72 °FScattered clouds.13 mph65%29.95 "Hg4 mi
12:30 pm73 °FScattered clouds.12 mph65%29.92 "Hg4 mi
1:00 pm75 °FScattered clouds.15 mph57%29.92 "Hg4 mi
1:30 pm77 °FScattered clouds.16 mph61%29.92 "Hg4 mi
2:00 pm77 °FScattered clouds.15 mph61%29.92 "Hg4 mi
2:30 pm79 °FPartly sunny.17 mph58%29.92 "Hg5 mi
3:00 pm75 °FBroken clouds.17 mph61%29.92 "HgN/A
3:30 pm75 °FBroken clouds.18 mph65%29.92 "HgN/A
4:00 pm75 °FPartly sunny.17 mph65%29.92 "HgN/A
4:30 pm77 °FPartly sunny.16 mph65%29.92 "HgN/A
5:00 pm73 °FPartly sunny.17 mph69%29.92 "HgN/A
5:30 pm73 °FBroken clouds.16 mph69%29.92 "HgN/A
6:00 pm73 °FBroken clouds.14 mph74%29.95 "HgN/A
6:30 pm73 °FBroken clouds.15 mph74%29.95 "HgN/A
7:00 pm73 °FBroken clouds.13 mph78%29.98 "HgN/A
7:30 pm73 °FBroken clouds.14 mph78%29.98 "HgN/A
8:00 pm72 °FBroken clouds.12 mph78%30.01 "HgN/A
8:30 pm72 °FPartly cloudy.13 mph78%30.04 "HgN/A
9:00 pm72 °FPartly cloudy.14 mph83%30.04 "HgN/A
9:30 pm70 °FPartly cloudy.15 mph88%30.04 "HgN/A
10:00 pm72 °FPartly cloudy.17 mph83%30.07 "HgN/A
10:30 pm70 °FPartly cloudy.17 mph83%30.07 "HgN/A
11:00 pm70 °FPartly cloudy.20 mph83%30.07 "HgN/A
11:30 pm70 °FPartly cloudy.20 mph83%30.07 "HgN/A
Weather by CustomWeather, © 2021

See weather overview